sensor_id;sensor_type;location;lat;lon;timestamp;P1;durP1;ratioP1;P2;durP2;ratioP2
70455;SDS011;57916;51.996;5.180;2022-10-28T00:00:30;20.90;;;12.53;;
70455;SDS011;57916;51.996;5.180;2022-10-28T00:03:00;25.07;;;12.70;;
70455;SDS011;57916;51.996;5.180;2022-10-28T00:05:28;23.63;;;11.75;;
70455;SDS011;57916;51.996;5.180;2022-10-28T00:07:58;29.25;;;12.00;;
70455;SDS011;57916;51.996;5.180;2022-10-28T00:10:25;27.02;;;12.90;;
70455;SDS011;57916;51.996;5.180;2022-10-28T00:12:52;26.45;;;12.75;;
70455;SDS011;57916;51.996;5.180;2022-10-28T00:15:19;23.20;;;12.23;;
70455;SDS011;57916;51.996;5.180;2022-10-28T00:17:46;27.02;;;11.90;;
70455;SDS011;57916;51.996;5.180;2022-10-28T00:20:13;23.90;;;11.20;;
70455;SDS011;57916;51.996;5.180;2022-10-28T00:22:41;22.10;;;11.85;;
70455;SDS011;57916;51.996;5.180;2022-10-28T00:25:08;24.63;;;12.27;;
70455;SDS011;57916;51.996;5.180;2022-10-28T00:27:35;25.60;;;11.70;;
70455;SDS011;57916;51.996;5.180;2022-10-28T00:30:02;25.17;;;12.30;;
70455;SDS011;57916;51.996;5.180;2022-10-28T00:32:30;22.23;;;12.83;;
70455;SDS011;57916;51.996;5.180;2022-10-28T00:34:57;22.23;;;12.98;;
70455;SDS011;57916;51.996;5.180;2022-10-28T00:37:24;24.33;;;13.43;;
70455;SDS011;57916;51.996;5.180;2022-10-28T00:39:50;22.50;;;12.77;;
70455;SDS011;57916;51.996;5.180;2022-10-28T00:42:18;27.27;;;13.77;;
70455;SDS011;57916;51.996;5.180;2022-10-28T00:45:00;24.70;;;12.73;;
70455;SDS011;57916;51.996;5.180;2022-10-28T00:47:32;21.50;;;13.57;;
70455;SDS011;57916;51.996;5.180;2022-10-28T00:52:54;23.10;;;13.60;;
70455;SDS011;57916;51.996;5.180;2022-10-28T00:55:26;29.10;;;13.00;;
70455;SDS011;57916;51.996;5.180;2022-10-28T00:57:54;31.60;;;13.70;;
70455;SDS011;57916;51.996;5.180;2022-10-28T01:00:23;23.30;;;13.60;;
70455;SDS011;57916;51.996;5.180;2022-10-28T01:02:51;22.83;;;13.50;;
70455;SDS011;57916;51.996;5.180;2022-10-28T01:05:19;22.48;;;13.30;;
70455;SDS011;57916;51.996;5.180;2022-10-28T01:07:52;24.17;;;12.65;;
70455;SDS011;57916;51.996;5.180;2022-10-28T01:10:24;24.83;;;12.40;;
70455;SDS011;57916;51.996;5.180;2022-10-28T01:16:01;26.80;;;12.25;;
70455;SDS011;57916;51.996;5.180;2022-10-28T01:24:11;29.57;;;12.60;;
70455;SDS011;57916;51.996;5.180;2022-10-28T01:35:42;25.90;;;12.70;;
70455;SDS011;57916;51.996;5.180;2022-10-28T01:38:23;21.67;;;14.30;;
70455;SDS011;57916;51.996;5.180;2022-10-28T01:41:13;32.50;;;15.57;;
70455;SDS011;57916;51.996;5.180;2022-10-28T01:46:48;23.52;;;14.27;;
70455;SDS011;57916;51.996;5.180;2022-10-28T01:49:34;20.50;;;9.20;;
70455;SDS011;57916;51.996;5.180;2022-10-28T01:52:24;24.90;;;9.90;;
70455;SDS011;57916;51.996;5.180;2022-10-28T01:54:58;16.25;;;10.02;;
70455;SDS011;57916;51.996;5.180;2022-10-28T01:57:38;19.85;;;10.27;;
70455;SDS011;57916;51.996;5.180;2022-10-28T02:00:07;25.37;;;10.30;;
70455;SDS011;57916;51.996;5.180;2022-10-28T02:02:38;22.48;;;10.50;;
70455;SDS011;57916;51.996;5.180;2022-10-28T02:08:03;20.53;;;10.03;;
70455;SDS011;57916;51.996;5.180;2022-10-28T02:11:01;22.85;;;9.63;;
70455;SDS011;57916;51.996;5.180;2022-10-28T02:24:00;23.80;;;10.63;;
70455;SDS011;57916;51.996;5.180;2022-10-28T02:26:59;18.08;;;9.68;;
70455;SDS011;57916;51.996;5.180;2022-10-28T02:29:48;27.25;;;10.35;;
70455;SDS011;57916;51.996;5.180;2022-10-28T02:32:21;26.63;;;10.52;;
70455;SDS011;57916;51.996;5.180;2022-10-28T02:34:53;28.17;;;10.23;;
70455;SDS011;57916;51.996;5.180;2022-10-28T02:37:26;20.50;;;9.20;;
70455;SDS011;57916;51.996;5.180;2022-10-28T02:39:57;22.98;;;10.52;;
70455;SDS011;57916;51.996;5.180;2022-10-28T02:42:28;25.13;;;10.80;;
70455;SDS011;57916;51.996;5.180;2022-10-28T02:45:09;17.40;;;9.05;;
70455;SDS011;57916;51.996;5.180;2022-10-28T02:47:41;20.50;;;9.37;;
70455;SDS011;57916;51.996;5.180;2022-10-28T02:50:14;25.02;;;10.77;;
70455;SDS011;57916;51.996;5.180;2022-10-28T02:52:44;23.70;;;10.45;;
70455;SDS011;57916;51.996;5.180;2022-10-28T02:55:15;20.85;;;10.88;;
70455;SDS011;57916;51.996;5.180;2022-10-28T02:57:44;22.95;;;10.00;;
70455;SDS011;57916;51.996;5.180;2022-10-28T03:00:16;19.77;;;9.67;;
70455;SDS011;57916;51.996;5.180;2022-10-28T03:02:45;24.83;;;10.57;;
70455;SDS011;57916;51.996;5.180;2022-10-28T03:05:12;20.33;;;10.02;;
70455;SDS011;57916;51.996;5.180;2022-10-28T03:07:39;25.35;;;10.10;;
70455;SDS011;57916;51.996;5.180;2022-10-28T03:10:07;19.55;;;9.85;;
70455;SDS011;57916;51.996;5.180;2022-10-28T03:12:34;19.38;;;9.93;;
70455;SDS011;57916;51.996;5.180;2022-10-28T03:15:02;27.88;;;10.43;;
70455;SDS011;57916;51.996;5.180;2022-10-28T03:17:29;20.00;;;9.27;;
70455;SDS011;57916;51.996;5.180;2022-10-28T03:19:56;20.58;;;9.77;;
70455;SDS011;57916;51.996;5.180;2022-10-28T03:22:23;17.97;;;9.17;;
70455;SDS011;57916;51.996;5.180;2022-10-28T03:24:50;17.77;;;9.57;;
70455;SDS011;57916;51.996;5.180;2022-10-28T03:27:17;18.70;;;9.70;;
70455;SDS011;57916;51.996;5.180;2022-10-28T03:29:44;22.57;;;9.53;;
70455;SDS011;57916;51.996;5.180;2022-10-28T03:32:11;20.25;;;9.40;;
70455;SDS011;57916;51.996;5.180;2022-10-28T03:34:38;26.52;;;9.75;;
70455;SDS011;57916;51.996;5.180;2022-10-28T03:37:06;24.60;;;9.82;;
70455;SDS011;57916;51.996;5.180;2022-10-28T03:39:32;20.23;;;9.30;;
70455;SDS011;57916;51.996;5.180;2022-10-28T03:41:59;23.02;;;9.80;;
70455;SDS011;57916;51.996;5.180;2022-10-28T03:44:26;17.02;;;8.00;;
70455;SDS011;57916;51.996;5.180;2022-10-28T03:46:53;20.42;;;9.80;;
70455;SDS011;57916;51.996;5.180;2022-10-28T03:49:20;19.98;;;9.27;;
70455;SDS011;57916;51.996;5.180;2022-10-28T03:51:47;22.27;;;8.60;;
70455;SDS011;57916;51.996;5.180;2022-10-28T03:54:14;15.43;;;7.70;;
70455;SDS011;57916;51.996;5.180;2022-10-28T03:56:41;20.55;;;8.20;;
70455;SDS011;57916;51.996;5.180;2022-10-28T03:59:08;15.60;;;7.78;;
70455;SDS011;57916;51.996;5.180;2022-10-28T04:01:35;17.73;;;8.20;;
70455;SDS011;57916;51.996;5.180;2022-10-28T04:04:02;21.17;;;9.25;;
70455;SDS011;57916;51.996;5.180;2022-10-28T04:06:29;24.50;;;9.13;;
70455;SDS011;57916;51.996;5.180;2022-10-28T04:08:56;15.73;;;7.27;;
70455;SDS011;57916;51.996;5.180;2022-10-28T04:11:23;17.35;;;8.05;;
70455;SDS011;57916;51.996;5.180;2022-10-28T04:13:50;18.88;;;8.40;;
70455;SDS011;57916;51.996;5.180;2022-10-28T04:16:17;16.85;;;7.88;;
70455;SDS011;57916;51.996;5.180;2022-10-28T04:18:44;19.98;;;8.18;;
70455;SDS011;57916;51.996;5.180;2022-10-28T04:21:11;14.90;;;7.88;;
70455;SDS011;57916;51.996;5.180;2022-10-28T04:23:37;17.98;;;8.90;;
70455;SDS011;57916;51.996;5.180;2022-10-28T04:26:04;16.20;;;8.10;;
70455;SDS011;57916;51.996;5.180;2022-10-28T04:28:31;17.20;;;8.30;;
70455;SDS011;57916;51.996;5.180;2022-10-28T04:30:58;19.67;;;7.80;;
70455;SDS011;57916;51.996;5.180;2022-10-28T04:33:27;19.38;;;7.88;;
70455;SDS011;57916;51.996;5.180;2022-10-28T04:35:54;20.45;;;8.50;;
70455;SDS011;57916;51.996;5.180;2022-10-28T04:38:22;19.70;;;7.78;;
70455;SDS011;57916;51.996;5.180;2022-10-28T04:40:50;21.77;;;8.00;;
70455;SDS011;57916;51.996;5.180;2022-10-28T04:43:17;15.55;;;7.05;;
70455;SDS011;57916;51.996;5.180;2022-10-28T04:45:44;17.65;;;7.05;;
70455;SDS011;57916;51.996;5.180;2022-10-28T04:48:12;14.77;;;6.85;;
70455;SDS011;57916;51.996;5.180;2022-10-28T04:50:39;15.10;;;7.90;;
70455;SDS011;57916;51.996;5.180;2022-10-28T04:53:09;16.25;;;6.75;;
70455;SDS011;57916;51.996;5.180;2022-10-28T04:55:36;14.85;;;6.93;;
70455;SDS011;57916;51.996;5.180;2022-10-28T04:58:03;15.27;;;6.93;;
70455;SDS011;57916;51.996;5.180;2022-10-28T05:00:30;17.35;;;6.68;;
70455;SDS011;57916;51.996;5.180;2022-10-28T05:02:59;12.10;;;6.78;;
70455;SDS011;57916;51.996;5.180;2022-10-28T05:05:27;12.18;;;6.65;;
70455;SDS011;57916;51.996;5.180;2022-10-28T05:07:54;11.38;;;6.70;;
70455;SDS011;57916;51.996;5.180;2022-10-28T05:10:21;17.63;;;7.30;;
70455;SDS011;57916;51.996;5.180;2022-10-28T05:12:48;13.95;;;6.75;;
70455;SDS011;57916;51.996;5.180;2022-10-28T05:15:15;17.23;;;6.93;;
70455;SDS011;57916;51.996;5.180;2022-10-28T05:17:43;18.23;;;6.80;;
70455;SDS011;57916;51.996;5.180;2022-10-28T05:20:11;16.40;;;7.30;;
70455;SDS011;57916;51.996;5.180;2022-10-28T05:22:51;16.92;;;7.78;;
70455;SDS011;57916;51.996;5.180;2022-10-28T05:25:20;18.42;;;7.07;;
70455;SDS011;57916;51.996;5.180;2022-10-28T05:27:48;11.38;;;7.00;;
70455;SDS011;57916;51.996;5.180;2022-10-28T05:30:15;16.77;;;7.22;;
70455;SDS011;57916;51.996;5.180;2022-10-28T05:32:42;16.23;;;6.53;;
70455;SDS011;57916;51.996;5.180;2022-10-28T05:35:10;18.67;;;6.88;;
70455;SDS011;57916;51.996;5.180;2022-10-28T05:37:37;15.05;;;6.53;;
70455;SDS011;57916;51.996;5.180;2022-10-28T05:40:04;18.23;;;6.82;;
70455;SDS011;57916;51.996;5.180;2022-10-28T05:42:31;19.83;;;6.35;;
70455;SDS011;57916;51.996;5.180;2022-10-28T05:44:58;14.98;;;6.50;;
70455;SDS011;57916;51.996;5.180;2022-10-28T05:47:25;14.18;;;6.22;;
70455;SDS011;57916;51.996;5.180;2022-10-28T05:49:52;15.55;;;5.93;;
70455;SDS011;57916;51.996;5.180;2022-10-28T05:52:19;16.60;;;6.90;;
70455;SDS011;57916;51.996;5.180;2022-10-28T05:54:45;21.67;;;6.97;;
70455;SDS011;57916;51.996;5.180;2022-10-28T05:57:12;17.58;;;6.10;;
70455;SDS011;57916;51.996;5.180;2022-10-28T05:59:39;16.10;;;6.65;;
70455;SDS011;57916;51.996;5.180;2022-10-28T06:02:10;17.40;;;6.85;;
70455;SDS011;57916;51.996;5.180;2022-10-28T06:04:40;18.48;;;6.82;;
70455;SDS011;57916;51.996;5.180;2022-10-28T06:07:08;21.23;;;6.33;;
70455;SDS011;57916;51.996;5.180;2022-10-28T06:09:35;21.27;;;6.70;;
70455;SDS011;57916;51.996;5.180;2022-10-28T06:12:02;20.10;;;7.20;;
70455;SDS011;57916;51.996;5.180;2022-10-28T06:14:31;21.33;;;6.93;;
70455;SDS011;57916;51.996;5.180;2022-10-28T06:16:58;19.70;;;7.17;;
70455;SDS011;57916;51.996;5.180;2022-10-28T06:19:25;19.02;;;6.50;;
70455;SDS011;57916;51.996;5.180;2022-10-28T06:21:51;14.25;;;6.30;;
70455;SDS011;57916;51.996;5.180;2022-10-28T06:24:18;16.85;;;6.22;;
70455;SDS011;57916;51.996;5.180;2022-10-28T06:26:45;17.45;;;6.22;;
70455;SDS011;57916;51.996;5.180;2022-10-28T06:29:12;18.45;;;6.32;;
70455;SDS011;57916;51.996;5.180;2022-10-28T06:31:42;16.50;;;6.93;;
70455;SDS011;57916;51.996;5.180;2022-10-28T06:34:10;17.33;;;6.80;;
70455;SDS011;57916;51.996;5.180;2022-10-28T06:36:37;20.13;;;6.60;;
70455;SDS011;57916;51.996;5.180;2022-10-28T06:39:04;16.98;;;6.88;;
70455;SDS011;57916;51.996;5.180;2022-10-28T06:41:32;14.47;;;6.93;;
70455;SDS011;57916;51.996;5.180;2022-10-28T06:43:59;14.13;;;6.78;;
70455;SDS011;57916;51.996;5.180;2022-10-28T06:46:27;15.80;;;6.70;;
70455;SDS011;57916;51.996;5.180;2022-10-28T06:48:54;14.70;;;6.38;;
70455;SDS011;57916;51.996;5.180;2022-10-28T06:51:22;18.75;;;6.50;;
70455;SDS011;57916;51.996;5.180;2022-10-28T06:53:49;21.10;;;6.68;;
70455;SDS011;57916;51.996;5.180;2022-10-28T06:56:17;19.88;;;6.15;;
70455;SDS011;57916;51.996;5.180;2022-10-28T06:58:48;17.90;;;5.93;;
70455;SDS011;57916;51.996;5.180;2022-10-28T07:01:19;14.95;;;5.63;;
70455;SDS011;57916;51.996;5.180;2022-10-28T07:03:47;16.08;;;5.63;;
70455;SDS011;57916;51.996;5.180;2022-10-28T07:06:14;16.87;;;5.43;;
70455;SDS011;57916;51.996;5.180;2022-10-28T07:08:42;26.92;;;6.07;;
70455;SDS011;57916;51.996;5.180;2022-10-28T07:11:09;16.75;;;5.93;;
70455;SDS011;57916;51.996;5.180;2022-10-28T07:13:36;19.92;;;5.60;;
70455;SDS011;57916;51.996;5.180;2022-10-28T07:16:03;20.63;;;5.07;;
70455;SDS011;57916;51.996;5.180;2022-10-28T07:18:30;21.40;;;5.70;;
70455;SDS011;57916;51.996;5.180;2022-10-28T07:20:58;14.25;;;5.28;;
70455;SDS011;57916;51.996;5.180;2022-10-28T07:23:26;17.83;;;5.45;;
70455;SDS011;57916;51.996;5.180;2022-10-28T07:25:54;17.58;;;5.10;;
70455;SDS011;57916;51.996;5.180;2022-10-28T07:28:22;16.60;;;5.47;;
70455;SDS011;57916;51.996;5.180;2022-10-28T07:30:50;15.88;;;5.53;;
70455;SDS011;57916;51.996;5.180;2022-10-28T07:33:17;13.20;;;5.05;;
70455;SDS011;57916;51.996;5.180;2022-10-28T07:35:44;19.25;;;5.10;;
70455;SDS011;57916;51.996;5.180;2022-10-28T07:38:11;19.48;;;5.18;;
70455;SDS011;57916;51.996;5.180;2022-10-28T07:40:38;13.65;;;5.00;;
70455;SDS011;57916;51.996;5.180;2022-10-28T07:43:05;17.90;;;5.60;;
70455;SDS011;57916;51.996;5.180;2022-10-28T07:45:33;17.02;;;4.97;;
70455;SDS011;57916;51.996;5.180;2022-10-28T07:48:01;14.80;;;5.10;;
70455;SDS011;57916;51.996;5.180;2022-10-28T07:50:28;16.77;;;4.97;;
70455;SDS011;57916;51.996;5.180;2022-10-28T07:52:56;19.30;;;4.77;;
70455;SDS011;57916;51.996;5.180;2022-10-28T07:55:22;16.60;;;5.35;;
70455;SDS011;57916;51.996;5.180;2022-10-28T07:57:51;17.17;;;4.78;;
70455;SDS011;57916;51.996;5.180;2022-10-28T08:00:19;12.73;;;4.82;;
70455;SDS011;57916;51.996;5.180;2022-10-28T08:02:46;14.52;;;4.70;;
70455;SDS011;57916;51.996;5.180;2022-10-28T08:05:13;14.60;;;4.72;;
70455;SDS011;57916;51.996;5.180;2022-10-28T08:07:40;15.80;;;5.05;;
70455;SDS011;57916;51.996;5.180;2022-10-28T08:13:11;16.07;;;5.30;;
70455;SDS011;57916;51.996;5.180;2022-10-28T08:15:39;19.63;;;5.25;;
70455;SDS011;57916;51.996;5.180;2022-10-28T08:18:06;13.67;;;4.77;;
70455;SDS011;57916;51.996;5.180;2022-10-28T08:20:33;19.63;;;4.90;;
70455;SDS011;57916;51.996;5.180;2022-10-28T08:23:00;16.17;;;4.78;;
70455;SDS011;57916;51.996;5.180;2022-10-28T08:25:31;18.40;;;4.93;;
70455;SDS011;57916;51.996;5.180;2022-10-28T08:27:58;15.35;;;4.80;;
70455;SDS011;57916;51.996;5.180;2022-10-28T08:30:25;15.68;;;5.00;;
70455;SDS011;57916;51.996;5.180;2022-10-28T08:32:55;12.87;;;4.50;;
70455;SDS011;57916;51.996;5.180;2022-10-28T08:35:22;16.98;;;4.93;;
70455;SDS011;57916;51.996;5.180;2022-10-28T08:37:50;14.98;;;4.88;;
70455;SDS011;57916;51.996;5.180;2022-10-28T08:40:18;16.83;;;4.78;;
70455;SDS011;57916;51.996;5.180;2022-10-28T08:42:55;13.27;;;4.90;;
70455;SDS011;57916;51.996;5.180;2022-10-28T08:45:36;12.85;;;4.68;;
70455;SDS011;57916;51.996;5.180;2022-10-28T08:48:29;13.48;;;5.15;;
70455;SDS011;57916;51.996;5.180;2022-10-28T08:51:00;14.65;;;4.70;;
70455;SDS011;57916;51.996;5.180;2022-10-28T08:53:39;14.70;;;4.78;;
70455;SDS011;57916;51.996;5.180;2022-10-28T08:56:14;15.05;;;4.30;;
70455;SDS011;57916;51.996;5.180;2022-10-28T08:58:47;14.23;;;4.63;;
70455;SDS011;57916;51.996;5.180;2022-10-28T09:01:32;14.30;;;4.75;;
70455;SDS011;57916;51.996;5.180;2022-10-28T09:04:13;20.30;;;4.95;;
70455;SDS011;57916;51.996;5.180;2022-10-28T09:06:45;19.65;;;5.80;;
70455;SDS011;57916;51.996;5.180;2022-10-28T09:09:16;19.70;;;5.32;;
70455;SDS011;57916;51.996;5.180;2022-10-28T09:16:58;20.77;;;5.40;;
70455;SDS011;57916;51.996;5.180;2022-10-28T09:19:51;18.52;;;5.22;;
70455;SDS011;57916;51.996;5.180;2022-10-28T09:22:23;14.45;;;4.82;;
70455;SDS011;57916;51.996;5.180;2022-10-28T09:24:55;18.87;;;4.83;;
70455;SDS011;57916;51.996;5.180;2022-10-28T09:30:29;19.77;;;5.20;;
70455;SDS011;57916;51.996;5.180;2022-10-28T09:33:07;15.63;;;5.20;;
70455;SDS011;57916;51.996;5.180;2022-10-28T09:35:48;16.70;;;5.38;;
70455;SDS011;57916;51.996;5.180;2022-10-28T09:40:57;15.73;;;5.13;;
70455;SDS011;57916;51.996;5.180;2022-10-28T09:46:36;17.50;;;5.72;;
70455;SDS011;57916;51.996;5.180;2022-10-28T09:49:05;17.20;;;5.00;;
70455;SDS011;57916;51.996;5.180;2022-10-28T09:51:58;16.73;;;4.90;;
70455;SDS011;57916;51.996;5.180;2022-10-28T09:54:48;19.00;;;4.90;;
70455;SDS011;57916;51.996;5.180;2022-10-28T09:57:17;26.35;;;5.75;;
70455;SDS011;57916;51.996;5.180;2022-10-28T09:59:45;16.30;;;4.80;;
70455;SDS011;57916;51.996;5.180;2022-10-28T10:02:25;16.35;;;4.97;;
70455;SDS011;57916;51.996;5.180;2022-10-28T10:04:55;17.92;;;5.13;;
70455;SDS011;57916;51.996;5.180;2022-10-28T10:07:45;13.03;;;4.43;;
70455;SDS011;57916;51.996;5.180;2022-10-28T10:12:58;15.68;;;4.70;;
70455;SDS011;57916;51.996;5.180;2022-10-28T10:15:32;16.05;;;4.20;;
70455;SDS011;57916;51.996;5.180;2022-10-28T10:18:04;17.10;;;4.90;;
70455;SDS011;57916;51.996;5.180;2022-10-28T10:23:20;19.27;;;4.93;;
70455;SDS011;57916;51.996;5.180;2022-10-28T10:25:55;13.32;;;5.00;;
70455;SDS011;57916;51.996;5.180;2022-10-28T10:28:35;16.10;;;5.38;;
70455;SDS011;57916;51.996;5.180;2022-10-28T10:31:06;17.70;;;4.50;;
70455;SDS011;57916;51.996;5.180;2022-10-28T10:33:41;13.18;;;4.15;;
70455;SDS011;57916;51.996;5.180;2022-10-28T10:38:35;15.55;;;4.55;;
70455;SDS011;57916;51.996;5.180;2022-10-28T10:41:03;14.55;;;4.38;;
70455;SDS011;57916;51.996;5.180;2022-10-28T10:43:31;20.90;;;4.85;;
70455;SDS011;57916;51.996;5.180;2022-10-28T10:48:39;19.17;;;4.60;;
70455;SDS011;57916;51.996;5.180;2022-10-28T10:54:11;22.20;;;4.40;;
70455;SDS011;57916;51.996;5.180;2022-10-28T10:56:40;23.15;;;5.15;;
70455;SDS011;57916;51.996;5.180;2022-10-28T10:59:20;17.07;;;4.03;;
70455;SDS011;57916;51.996;5.180;2022-10-28T11:01:51;21.25;;;4.35;;
70455;SDS011;57916;51.996;5.180;2022-10-28T11:04:19;20.27;;;4.20;;
70455;SDS011;57916;51.996;5.180;2022-10-28T11:06:49;17.75;;;4.30;;
70455;SDS011;57916;51.996;5.180;2022-10-28T11:11:46;16.33;;;4.55;;
70455;SDS011;57916;51.996;5.180;2022-10-28T11:14:20;24.85;;;4.75;;
70455;SDS011;57916;51.996;5.180;2022-10-28T11:16:57;15.57;;;3.92;;
70455;SDS011;57916;51.996;5.180;2022-10-28T11:19:33;17.10;;;4.00;;
70455;SDS011;57916;51.996;5.180;2022-10-28T11:22:12;18.90;;;4.43;;
70455;SDS011;57916;51.996;5.180;2022-10-28T11:36:33;18.33;;;4.32;;
70455;SDS011;57916;51.996;5.180;2022-10-28T11:39:28;16.00;;;4.00;;
70455;SDS011;57916;51.996;5.180;2022-10-28T11:42:14;15.23;;;3.90;;
70455;SDS011;57916;51.996;5.180;2022-10-28T11:44:55;14.00;;;3.65;;
70455;SDS011;57916;51.996;5.180;2022-10-28T11:53:34;18.90;;;4.13;;
70455;SDS011;57916;51.996;5.180;2022-10-28T12:15:36;14.85;;;3.70;;
70455;SDS011;57916;51.996;5.180;2022-10-28T12:21:05;17.00;;;4.40;;
70455;SDS011;57916;51.996;5.180;2022-10-28T12:23:44;18.52;;;4.07;;
70455;SDS011;57916;51.996;5.180;2022-10-28T12:26:14;23.55;;;4.10;;
70455;SDS011;57916;51.996;5.180;2022-10-28T12:28:50;14.98;;;4.20;;
70455;SDS011;57916;51.996;5.180;2022-10-28T12:31:22;20.60;;;4.20;;
70455;SDS011;57916;51.996;5.180;2022-10-28T12:33:59;14.77;;;4.20;;
70455;SDS011;57916;51.996;5.180;2022-10-28T12:39:34;17.73;;;4.25;;
70455;SDS011;57916;51.996;5.180;2022-10-28T12:42:15;13.25;;;3.83;;
70455;SDS011;57916;51.996;5.180;2022-10-28T12:44:44;19.33;;;4.10;;
70455;SDS011;57916;51.996;5.180;2022-10-28T12:50:45;19.52;;;5.05;;
70455;SDS011;57916;51.996;5.180;2022-10-28T12:53:21;18.08;;;4.32;;
70455;SDS011;57916;51.996;5.180;2022-10-28T12:55:58;20.17;;;4.38;;
70455;SDS011;57916;51.996;5.180;2022-10-28T12:58:34;16.88;;;3.92;;
70455;SDS011;57916;51.996;5.180;2022-10-28T13:01:05;17.75;;;4.30;;
70455;SDS011;57916;51.996;5.180;2022-10-28T13:03:35;16.48;;;4.28;;
70455;SDS011;57916;51.996;5.180;2022-10-28T13:11:31;23.40;;;4.30;;
70455;SDS011;57916;51.996;5.180;2022-10-28T13:19:37;18.52;;;3.95;;
70455;SDS011;57916;51.996;5.180;2022-10-28T13:22:52;17.50;;;4.10;;
70455;SDS011;57916;51.996;5.180;2022-10-28T13:28:11;16.83;;;3.80;;
70455;SDS011;57916;51.996;5.180;2022-10-28T13:30:56;17.63;;;4.00;;
70455;SDS011;57916;51.996;5.180;2022-10-28T13:33:26;14.07;;;3.85;;
70455;SDS011;57916;51.996;5.180;2022-10-28T13:36:05;19.57;;;3.40;;
70455;SDS011;57916;51.996;5.180;2022-10-28T13:38:35;13.02;;;4.13;;
70455;SDS011;57916;51.996;5.180;2022-10-28T13:49:24;18.05;;;3.90;;
70455;SDS011;57916;51.996;5.180;2022-10-28T13:52:17;17.38;;;3.83;;
70455;SDS011;57916;51.996;5.180;2022-10-28T13:57:33;22.88;;;4.10;;
70455;SDS011;57916;51.996;5.180;2022-10-28T14:00:47;13.75;;;3.50;;
70455;SDS011;57916;51.996;5.180;2022-10-28T14:03:02;18.17;;;3.78;;
70455;SDS011;57916;51.996;5.180;2022-10-28T14:08:02;14.88;;;3.90;;
70455;SDS011;57916;51.996;5.180;2022-10-28T14:10:35;18.88;;;4.30;;
70455;SDS011;57916;51.996;5.180;2022-10-28T14:15:43;16.63;;;3.97;;
70455;SDS011;57916;51.996;5.180;2022-10-28T14:21:00;20.98;;;3.95;;
70455;SDS011;57916;51.996;5.180;2022-10-28T14:44:21;25.10;;;3.90;;
70455;SDS011;57916;51.996;5.180;2022-10-28T14:52:51;14.60;;;3.53;;
70455;SDS011;57916;51.996;5.180;2022-10-28T14:55:25;18.67;;;3.80;;
70455;SDS011;57916;51.996;5.180;2022-10-28T15:03:41;11.33;;;3.30;;
70455;SDS011;57916;51.996;5.180;2022-10-28T15:09:14;15.63;;;3.22;;
70455;SDS011;57916;51.996;5.180;2022-10-28T15:11:45;20.08;;;3.60;;
70455;SDS011;57916;51.996;5.180;2022-10-28T15:14:34;12.70;;;3.00;;
70455;SDS011;57916;51.996;5.180;2022-10-28T15:17:24;14.70;;;3.50;;
70455;SDS011;57916;51.996;5.180;2022-10-28T15:19:56;10.88;;;2.85;;
70455;SDS011;57916;51.996;5.180;2022-10-28T15:22:30;13.17;;;2.93;;
70455;SDS011;57916;51.996;5.180;2022-10-28T15:25:05;16.40;;;3.35;;
70455;SDS011;57916;51.996;5.180;2022-10-28T15:27:43;14.20;;;3.28;;
70455;SDS011;57916;51.996;5.180;2022-10-28T15:30:16;15.53;;;3.20;;
70455;SDS011;57916;51.996;5.180;2022-10-28T15:32:49;15.70;;;3.17;;
70455;SDS011;57916;51.996;5.180;2022-10-28T15:35:33;13.30;;;3.20;;
70455;SDS011;57916;51.996;5.180;2022-10-28T15:38:29;9.35;;;3.25;;
70455;SDS011;57916;51.996;5.180;2022-10-28T15:41:01;21.50;;;3.40;;
70455;SDS011;57916;51.996;5.180;2022-10-28T15:43:53;13.33;;;3.70;;
70455;SDS011;57916;51.996;5.180;2022-10-28T15:46:21;18.60;;;3.67;;
70455;SDS011;57916;51.996;5.180;2022-10-28T15:48:52;16.88;;;3.40;;
70455;SDS011;57916;51.996;5.180;2022-10-28T15:51:20;13.35;;;3.33;;
70455;SDS011;57916;51.996;5.180;2022-10-28T15:53:47;18.23;;;3.75;;
70455;SDS011;57916;51.996;5.180;2022-10-28T15:56:23;17.42;;;3.83;;
70455;SDS011;57916;51.996;5.180;2022-10-28T16:04:00;14.52;;;3.60;;
70455;SDS011;57916;51.996;5.180;2022-10-28T16:06:28;16.65;;;3.67;;
70455;SDS011;57916;51.996;5.180;2022-10-28T16:11:54;19.85;;;4.10;;
70455;SDS011;57916;51.996;5.180;2022-10-28T16:17:29;17.08;;;4.00;;
70455;SDS011;57916;51.996;5.180;2022-10-28T16:19:59;21.65;;;4.00;;
70455;SDS011;57916;51.996;5.180;2022-10-28T16:22:29;20.55;;;3.88;;
70455;SDS011;57916;51.996;5.180;2022-10-28T16:25:00;21.30;;;4.13;;
70455;SDS011;57916;51.996;5.180;2022-10-28T16:27:29;20.75;;;3.95;;
70455;SDS011;57916;51.996;5.180;2022-10-28T16:29:57;17.05;;;3.88;;
70455;SDS011;57916;51.996;5.180;2022-10-28T16:32:27;18.05;;;3.85;;
70455;SDS011;57916;51.996;5.180;2022-10-28T16:35:00;21.63;;;4.10;;
70455;SDS011;57916;51.996;5.180;2022-10-28T16:37:29;12.85;;;4.13;;
70455;SDS011;57916;51.996;5.180;2022-10-28T16:39:57;17.42;;;3.78;;
70455;SDS011;57916;51.996;5.180;2022-10-28T16:42:24;17.38;;;4.40;;
70455;SDS011;57916;51.996;5.180;2022-10-28T16:44:52;17.23;;;4.40;;
70455;SDS011;57916;51.996;5.180;2022-10-28T16:47:19;16.50;;;4.10;;
70455;SDS011;57916;51.996;5.180;2022-10-28T16:49:47;17.30;;;4.10;;
70455;SDS011;57916;51.996;5.180;2022-10-28T16:52:22;19.90;;;4.32;;
70455;SDS011;57916;51.996;5.180;2022-10-28T16:54:56;13.45;;;4.05;;
70455;SDS011;57916;51.996;5.180;2022-10-28T16:57:23;17.33;;;4.13;;
70455;SDS011;57916;51.996;5.180;2022-10-28T16:59:51;15.18;;;3.85;;
70455;SDS011;57916;51.996;5.180;2022-10-28T17:02:20;19.75;;;4.13;;
70455;SDS011;57916;51.996;5.180;2022-10-28T17:04:50;17.05;;;3.88;;
70455;SDS011;57916;51.996;5.180;2022-10-28T17:07:17;19.80;;;3.90;;
70455;SDS011;57916;51.996;5.180;2022-10-28T17:09:44;21.98;;;4.20;;
70455;SDS011;57916;51.996;5.180;2022-10-28T17:12:15;15.80;;;3.60;;
70455;SDS011;57916;51.996;5.180;2022-10-28T17:14:44;17.17;;;4.20;;
70455;SDS011;57916;51.996;5.180;2022-10-28T17:17:11;16.77;;;4.35;;
70455;SDS011;57916;51.996;5.180;2022-10-28T17:19:38;19.10;;;4.25;;
70455;SDS011;57916;51.996;5.180;2022-10-28T17:22:06;19.83;;;4.53;;
70455;SDS011;57916;51.996;5.180;2022-10-28T17:24:35;16.33;;;4.18;;
70455;SDS011;57916;51.996;5.180;2022-10-28T17:27:03;14.77;;;4.03;;
70455;SDS011;57916;51.996;5.180;2022-10-28T17:29:30;18.37;;;3.93;;
70455;SDS011;57916;51.996;5.180;2022-10-28T17:31:57;13.85;;;3.88;;
70455;SDS011;57916;51.996;5.180;2022-10-28T17:34:24;16.47;;;3.93;;
70455;SDS011;57916;51.996;5.180;2022-10-28T17:36:51;14.25;;;4.30;;
70455;SDS011;57916;51.996;5.180;2022-10-28T17:39:18;15.90;;;3.83;;
70455;SDS011;57916;51.996;5.180;2022-10-28T17:41:51;22.90;;;4.45;;
70455;SDS011;57916;51.996;5.180;2022-10-28T17:44:19;20.50;;;4.38;;
70455;SDS011;57916;51.996;5.180;2022-10-28T17:46:49;21.50;;;4.47;;
70455;SDS011;57916;51.996;5.180;2022-10-28T17:49:17;19.60;;;4.43;;
70455;SDS011;57916;51.996;5.180;2022-10-28T17:51:44;18.55;;;5.03;;
70455;SDS011;57916;51.996;5.180;2022-10-28T17:54:11;22.23;;;5.00;;
70455;SDS011;57916;51.996;5.180;2022-10-28T17:56:38;18.33;;;5.20;;
70455;SDS011;57916;51.996;5.180;2022-10-28T17:59:07;21.75;;;6.05;;
70455;SDS011;57916;51.996;5.180;2022-10-28T18:01:35;21.30;;;5.30;;
70455;SDS011;57916;51.996;5.180;2022-10-28T18:04:02;17.13;;;5.00;;
70455;SDS011;57916;51.996;5.180;2022-10-28T18:06:30;16.83;;;5.10;;
70455;SDS011;57916;51.996;5.180;2022-10-28T18:08:57;16.93;;;5.00;;
70455;SDS011;57916;51.996;5.180;2022-10-28T18:11:24;19.27;;;4.70;;